Terminal Aerodrome Forecast
Issued by NWS Louisville, KY

Home | Current Version | Previous Version | Text Only | Print | Product List | Glossary On
Versions: 1 2 3 4 5 6 7 8 9 10 11 12 13 14 15 16 17 18 19 20 21 22 23 24 25
000
FTUS43 KLMK 301700
TAFLEX
TAF
KLEX 301734Z 3018/3118 20011KT P6SM VCSH OVC150
     FM302300 20009KT P6SM -SHRA OVC080
     FM310700 20009KT 5SM -SHRA BR VCTS OVC035CB=

USA.gov is the U.S. government's official web portal to all federal, state and local government web resources and services.